sensor_id;sensor_type;location;lat;lon;timestamp;temperature;humidity
79301;SHT31;68755;51.984;5.646;2024-01-07T00:02:10;3.7;74.3
79301;SHT31;68755;51.984;5.646;2024-01-07T00:04:41;3.7;74.5
79301;SHT31;68755;51.984;5.646;2024-01-07T00:07:11;3.7;74.5
79301;SHT31;68755;51.984;5.646;2024-01-07T00:09:41;3.7;74.2
79301;SHT31;68755;51.984;5.646;2024-01-07T00:12:10;3.7;74.1
79301;SHT31;68755;51.984;5.646;2024-01-07T00:14:40;3.6;74.4
79301;SHT31;68755;51.984;5.646;2024-01-07T00:17:10;3.6;74.4
79301;SHT31;68755;51.984;5.646;2024-01-07T00:19:40;3.6;74.5
79301;SHT31;68755;51.984;5.646;2024-01-07T00:22:09;3.6;74.7
79301;SHT31;68755;51.984;5.646;2024-01-07T00:24:39;3.6;74.7
79301;SHT31;68755;51.984;5.646;2024-01-07T00:27:08;3.6;75.0
79301;SHT31;68755;51.984;5.646;2024-01-07T00:29:38;3.6;74.9
79301;SHT31;68755;51.984;5.646;2024-01-07T00:32:08;3.6;74.9
79301;SHT31;68755;51.984;5.646;2024-01-07T00:34:37;3.6;75.2
79301;SHT31;68755;51.984;5.646;2024-01-07T00:37:07;3.6;75.2
79301;SHT31;68755;51.984;5.646;2024-01-07T00:39:36;3.6;75.0
79301;SHT31;68755;51.984;5.646;2024-01-07T00:42:07;3.6;75.2
79301;SHT31;68755;51.984;5.646;2024-01-07T00:44:37;3.6;75.3
79301;SHT31;68755;51.984;5.646;2024-01-07T00:47:08;3.6;75.6
79301;SHT31;68755;51.984;5.646;2024-01-07T00:49:38;3.6;75.7
79301;SHT31;68755;51.984;5.646;2024-01-07T00:52:09;3.6;75.7
79301;SHT31;68755;51.984;5.646;2024-01-07T00:54:38;3.5;75.8
79301;SHT31;68755;51.984;5.646;2024-01-07T00:57:10;3.5;76.3
79301;SHT31;68755;51.984;5.646;2024-01-07T00:59:39;3.5;76.1
79301;SHT31;68755;51.984;5.646;2024-01-07T01:02:09;3.5;76.5
79301;SHT31;68755;51.984;5.646;2024-01-07T01:04:40;3.5;76.1
79301;SHT31;68755;51.984;5.646;2024-01-07T01:07:09;3.5;76.3
79301;SHT31;68755;51.984;5.646;2024-01-07T01:09:39;3.5;76.4
79301;SHT31;68755;51.984;5.646;2024-01-07T01:12:09;3.5;76.4
79301;SHT31;68755;51.984;5.646;2024-01-07T01:14:39;3.5;76.5
79301;SHT31;68755;51.984;5.646;2024-01-07T01:17:08;3.5;76.5
79301;SHT31;68755;51.984;5.646;2024-01-07T01:19:38;3.5;76.6
79301;SHT31;68755;51.984;5.646;2024-01-07T01:22:08;3.5;76.4
79301;SHT31;68755;51.984;5.646;2024-01-07T01:24:37;3.5;76.3
79301;SHT31;68755;51.984;5.646;2024-01-07T01:27:09;3.5;76.4
79301;SHT31;68755;51.984;5.646;2024-01-07T01:29:39;3.5;76.3
79301;SHT31;68755;51.984;5.646;2024-01-07T01:32:11;3.5;76.2
79301;SHT31;68755;51.984;5.646;2024-01-07T01:34:41;3.5;76.3
79301;SHT31;68755;51.984;5.646;2024-01-07T01:37:11;3.5;76.0
79301;SHT31;68755;51.984;5.646;2024-01-07T01:39:41;3.5;75.8
79301;SHT31;68755;51.984;5.646;2024-01-07T01:42:11;3.5;75.9
79301;SHT31;68755;51.984;5.646;2024-01-07T01:44:41;3.5;75.7
79301;SHT31;68755;51.984;5.646;2024-01-07T01:47:11;3.5;75.9
79301;SHT31;68755;51.984;5.646;2024-01-07T01:49:41;3.5;75.8
79301;SHT31;68755;51.984;5.646;2024-01-07T01:52:12;3.5;75.8
79301;SHT31;68755;51.984;5.646;2024-01-07T01:54:43;3.5;75.6
79301;SHT31;68755;51.984;5.646;2024-01-07T01:57:17;3.5;75.3
79301;SHT31;68755;51.984;5.646;2024-01-07T01:59:50;3.5;75.1
79301;SHT31;68755;51.984;5.646;2024-01-07T02:02:21;3.5;75.1
79301;SHT31;68755;51.984;5.646;2024-01-07T02:04:51;3.5;75.0
79301;SHT31;68755;51.984;5.646;2024-01-07T02:07:20;3.5;74.9
79301;SHT31;68755;51.984;5.646;2024-01-07T02:09:50;3.5;75.1
79301;SHT31;68755;51.984;5.646;2024-01-07T02:12:20;3.5;75.0
79301;SHT31;68755;51.984;5.646;2024-01-07T02:14:49;3.5;74.9
79301;SHT31;68755;51.984;5.646;2024-01-07T02:17:19;3.5;75.2
79301;SHT31;68755;51.984;5.646;2024-01-07T02:19:49;3.4;75.3
79301;SHT31;68755;51.984;5.646;2024-01-07T02:22:19;3.4;75.3
79301;SHT31;68755;51.984;5.646;2024-01-07T02:24:48;3.4;75.1
79301;SHT31;68755;51.984;5.646;2024-01-07T02:27:18;3.4;74.9
79301;SHT31;68755;51.984;5.646;2024-01-07T02:29:47;3.4;74.9
79301;SHT31;68755;51.984;5.646;2024-01-07T02:32:17;3.4;74.9
79301;SHT31;68755;51.984;5.646;2024-01-07T02:34:46;3.4;74.9
79301;SHT31;68755;51.984;5.646;2024-01-07T02:37:16;3.4;75.1
79301;SHT31;68755;51.984;5.646;2024-01-07T02:39:46;3.4;75.5
79301;SHT31;68755;51.984;5.646;2024-01-07T02:42:15;3.4;75.4
79301;SHT31;68755;51.984;5.646;2024-01-07T02:44:45;3.4;75.6
79301;SHT31;68755;51.984;5.646;2024-01-07T02:47:15;3.4;75.7
79301;SHT31;68755;51.984;5.646;2024-01-07T02:49:44;3.4;75.9
79301;SHT31;68755;51.984;5.646;2024-01-07T02:52:14;3.4;75.7
79301;SHT31;68755;51.984;5.646;2024-01-07T02:54:43;3.4;75.7
79301;SHT31;68755;51.984;5.646;2024-01-07T02:57:13;3.4;76.0
79301;SHT31;68755;51.984;5.646;2024-01-07T02:59:42;3.4;75.8
79301;SHT31;68755;51.984;5.646;2024-01-07T03:02:12;3.4;75.8
79301;SHT31;68755;51.984;5.646;2024-01-07T03:04:43;3.4;75.9
79301;SHT31;68755;51.984;5.646;2024-01-07T03:07:12;3.4;75.9
79301;SHT31;68755;51.984;5.646;2024-01-07T03:09:42;3.4;75.8
79301;SHT31;68755;51.984;5.646;2024-01-07T03:12:12;3.4;75.5
79301;SHT31;68755;51.984;5.646;2024-01-07T03:14:43;3.4;75.7
79301;SHT31;68755;51.984;5.646;2024-01-07T03:17:12;3.4;75.8
79301;SHT31;68755;51.984;5.646;2024-01-07T03:19:42;3.4;75.6
79301;SHT31;68755;51.984;5.646;2024-01-07T03:22:13;3.3;75.5
79301;SHT31;68755;51.984;5.646;2024-01-07T03:24:44;3.3;75.6
79301;SHT31;68755;51.984;5.646;2024-01-07T03:27:14;3.3;75.5
79301;SHT31;68755;51.984;5.646;2024-01-07T03:29:46;3.3;75.7
79301;SHT31;68755;51.984;5.646;2024-01-07T03:32:15;3.3;75.8
79301;SHT31;68755;51.984;5.646;2024-01-07T03:34:45;3.3;76.1
79301;SHT31;68755;51.984;5.646;2024-01-07T03:37:15;3.2;76.2
79301;SHT31;68755;51.984;5.646;2024-01-07T03:39:46;3.2;76.1
79301;SHT31;68755;51.984;5.646;2024-01-07T03:42:16;3.2;76.3
79301;SHT31;68755;51.984;5.646;2024-01-07T03:44:46;3.2;76.2
79301;SHT31;68755;51.984;5.646;2024-01-07T03:47:18;3.2;75.6
79301;SHT31;68755;51.984;5.646;2024-01-07T03:49:47;3.2;75.3
79301;SHT31;68755;51.984;5.646;2024-01-07T03:52:17;3.2;75.6
79301;SHT31;68755;51.984;5.646;2024-01-07T03:54:47;3.2;75.3
79301;SHT31;68755;51.984;5.646;2024-01-07T03:57:16;3.2;75.3
79301;SHT31;68755;51.984;5.646;2024-01-07T03:59:46;3.2;75.3
79301;SHT31;68755;51.984;5.646;2024-01-07T04:02:15;3.2;75.2
79301;SHT31;68755;51.984;5.646;2024-01-07T04:04:45;3.2;75.2
79301;SHT31;68755;51.984;5.646;2024-01-07T04:07:15;3.2;75.4
79301;SHT31;68755;51.984;5.646;2024-01-07T04:09:46;3.2;75.5
79301;SHT31;68755;51.984;5.646;2024-01-07T04:12:15;3.2;75.3
79301;SHT31;68755;51.984;5.646;2024-01-07T04:14:45;3.2;75.2
79301;SHT31;68755;51.984;5.646;2024-01-07T04:17:14;3.2;75.3
79301;SHT31;68755;51.984;5.646;2024-01-07T04:19:44;3.2;74.9
79301;SHT31;68755;51.984;5.646;2024-01-07T04:22:13;3.2;74.7
79301;SHT31;68755;51.984;5.646;2024-01-07T04:24:44;3.2;74.7
79301;SHT31;68755;51.984;5.646;2024-01-07T04:27:13;3.2;74.4
79301;SHT31;68755;51.984;5.646;2024-01-07T04:29:43;3.2;74.3
79301;SHT31;68755;51.984;5.646;2024-01-07T04:32:12;3.2;73.8
79301;SHT31;68755;51.984;5.646;2024-01-07T04:34:42;3.2;74.1
79301;SHT31;68755;51.984;5.646;2024-01-07T04:37:11;3.2;74.0
79301;SHT31;68755;51.984;5.646;2024-01-07T04:39:41;3.2;73.5
79301;SHT31;68755;51.984;5.646;2024-01-07T04:42:11;3.1;73.6
79301;SHT31;68755;51.984;5.646;2024-01-07T04:44:41;3.1;73.4
79301;SHT31;68755;51.984;5.646;2024-01-07T04:47:25;3.1;73.8
79301;SHT31;68755;51.984;5.646;2024-01-07T04:49:55;3.1;73.6
79301;SHT31;68755;51.984;5.646;2024-01-07T04:52:26;3.1;73.7
79301;SHT31;68755;51.984;5.646;2024-01-07T04:54:56;3.1;73.8
79301;SHT31;68755;51.984;5.646;2024-01-07T04:57:25;3.1;73.7
79301;SHT31;68755;51.984;5.646;2024-01-07T04:59:55;3.1;73.8
79301;SHT31;68755;51.984;5.646;2024-01-07T05:02:25;3.1;73.4
79301;SHT31;68755;51.984;5.646;2024-01-07T05:04:54;3.1;73.4
79301;SHT31;68755;51.984;5.646;2024-01-07T05:07:25;3.1;73.4
79301;SHT31;68755;51.984;5.646;2024-01-07T05:09:54;3.1;73.1
79301;SHT31;68755;51.984;5.646;2024-01-07T05:12:24;3.1;73.0
79301;SHT31;68755;51.984;5.646;2024-01-07T05:14:54;3.1;73.0
79301;SHT31;68755;51.984;5.646;2024-01-07T05:17:24;3.1;73.3
79301;SHT31;68755;51.984;5.646;2024-01-07T05:19:54;3.1;73.1
79301;SHT31;68755;51.984;5.646;2024-01-07T05:22:23;3.1;72.7
79301;SHT31;68755;51.984;5.646;2024-01-07T05:24:53;3.1;72.7
79301;SHT31;68755;51.984;5.646;2024-01-07T05:27:23;3.1;72.0
79301;SHT31;68755;51.984;5.646;2024-01-07T05:29:52;3.1;72.0
79301;SHT31;68755;51.984;5.646;2024-01-07T05:32:23;3.1;71.6
79301;SHT31;68755;51.984;5.646;2024-01-07T05:34:56;3.1;71.9
79301;SHT31;68755;51.984;5.646;2024-01-07T05:37:26;3.1;71.7
79301;SHT31;68755;51.984;5.646;2024-01-07T05:39:56;3.1;72.0
79301;SHT31;68755;51.984;5.646;2024-01-07T05:42:26;3.1;72.1
79301;SHT31;68755;51.984;5.646;2024-01-07T05:44:55;3.1;72.1
79301;SHT31;68755;51.984;5.646;2024-01-07T05:47:25;3.1;71.4
79301;SHT31;68755;51.984;5.646;2024-01-07T05:49:55;3.1;71.3
79301;SHT31;68755;51.984;5.646;2024-01-07T05:52:26;3.1;71.3
79301;SHT31;68755;51.984;5.646;2024-01-07T05:54:56;3.2;71.0
79301;SHT31;68755;51.984;5.646;2024-01-07T05:57:26;3.2;70.6
79301;SHT31;68755;51.984;5.646;2024-01-07T05:59:56;3.2;70.2
79301;SHT31;68755;51.984;5.646;2024-01-07T06:02:25;3.2;69.7
79301;SHT31;68755;51.984;5.646;2024-01-07T06:04:55;3.2;70.2
79301;SHT31;68755;51.984;5.646;2024-01-07T06:07:24;3.3;70.5
79301;SHT31;68755;51.984;5.646;2024-01-07T06:09:54;3.3;69.7
79301;SHT31;68755;51.984;5.646;2024-01-07T06:12:24;3.3;69.3
79301;SHT31;68755;51.984;5.646;2024-01-07T06:14:53;3.3;69.4
79301;SHT31;68755;51.984;5.646;2024-01-07T06:17:23;3.3;69.5
79301;SHT31;68755;51.984;5.646;2024-01-07T06:19:53;3.4;69.4
79301;SHT31;68755;51.984;5.646;2024-01-07T06:22:23;3.4;69.3
79301;SHT31;68755;51.984;5.646;2024-01-07T06:24:53;3.4;68.8
79301;SHT31;68755;51.984;5.646;2024-01-07T06:27:22;3.5;68.5
79301;SHT31;68755;51.984;5.646;2024-01-07T06:29:52;3.5;68.5
79301;SHT31;68755;51.984;5.646;2024-01-07T06:32:22;3.5;68.2
79301;SHT31;68755;51.984;5.646;2024-01-07T06:34:54;3.4;68.1
79301;SHT31;68755;51.984;5.646;2024-01-07T06:37:24;3.4;68.1
79301;SHT31;68755;51.984;5.646;2024-01-07T06:39:56;3.4;68.0
79301;SHT31;68755;51.984;5.646;2024-01-07T06:42:26;3.4;68.1
79301;SHT31;68755;51.984;5.646;2024-01-07T06:44:56;3.4;68.5
79301;SHT31;68755;51.984;5.646;2024-01-07T06:47:25;3.4;68.0
79301;SHT31;68755;51.984;5.646;2024-01-07T06:49:55;3.3;68.2
79301;SHT31;68755;51.984;5.646;2024-01-07T06:52:24;3.3;68.7
79301;SHT31;68755;51.984;5.646;2024-01-07T06:54:54;3.2;68.7
79301;SHT31;68755;51.984;5.646;2024-01-07T06:57:23;3.2;69.0
79301;SHT31;68755;51.984;5.646;2024-01-07T06:59:53;3.2;69.2
79301;SHT31;68755;51.984;5.646;2024-01-07T07:02:23;3.1;69.5
79301;SHT31;68755;51.984;5.646;2024-01-07T07:04:52;3.1;69.8
79301;SHT31;68755;51.984;5.646;2024-01-07T07:07:24;3.1;69.8
79301;SHT31;68755;51.984;5.646;2024-01-07T07:09:54;3.0;70.2
79301;SHT31;68755;51.984;5.646;2024-01-07T07:12:23;3.0;69.9
79301;SHT31;68755;51.984;5.646;2024-01-07T07:14:55;3.0;69.6
79301;SHT31;68755;51.984;5.646;2024-01-07T07:17:24;3.0;69.4
79301;SHT31;68755;51.984;5.646;2024-01-07T07:19:54;3.0;69.3
79301;SHT31;68755;51.984;5.646;2024-01-07T07:22:23;2.9;69.0
79301;SHT31;68755;51.984;5.646;2024-01-07T07:24:53;2.9;68.9
79301;SHT31;68755;51.984;5.646;2024-01-07T07:27:23;2.9;68.9
79301;SHT31;68755;51.984;5.646;2024-01-07T07:29:53;2.8;69.1
79301;SHT31;68755;51.984;5.646;2024-01-07T07:32:23;2.8;69.0
79301;SHT31;68755;51.984;5.646;2024-01-07T07:34:52;2.8;69.1
79301;SHT31;68755;51.984;5.646;2024-01-07T07:37:22;2.8;69.4
79301;SHT31;68755;51.984;5.646;2024-01-07T07:39:52;2.8;68.9
79301;SHT31;68755;51.984;5.646;2024-01-07T07:42:22;2.8;69.7
79301;SHT31;68755;51.984;5.646;2024-01-07T07:44:51;2.7;69.9
79301;SHT31;68755;51.984;5.646;2024-01-07T07:47:21;2.7;69.7
79301;SHT31;68755;51.984;5.646;2024-01-07T07:49:51;2.8;69.7
79301;SHT31;68755;51.984;5.646;2024-01-07T07:52:20;2.8;69.7
79301;SHT31;68755;51.984;5.646;2024-01-07T07:54:53;2.8;69.7
79301;SHT31;68755;51.984;5.646;2024-01-07T07:57:22;2.8;69.8
79301;SHT31;68755;51.984;5.646;2024-01-07T07:59:52;2.8;69.1
79301;SHT31;68755;51.984;5.646;2024-01-07T08:02:22;2.8;69.3
79301;SHT31;68755;51.984;5.646;2024-01-07T08:04:54;2.8;69.4
79301;SHT31;68755;51.984;5.646;2024-01-07T08:07:24;2.8;69.7
79301;SHT31;68755;51.984;5.646;2024-01-07T08:09:53;2.7;69.8
79301;SHT31;68755;51.984;5.646;2024-01-07T08:12:25;2.7;69.4
79301;SHT31;68755;51.984;5.646;2024-01-07T08:14:55;2.7;68.9
79301;SHT31;68755;51.984;5.646;2024-01-07T08:17:25;2.7;68.4
79301;SHT31;68755;51.984;5.646;2024-01-07T08:19:56;2.7;68.2
79301;SHT31;68755;51.984;5.646;2024-01-07T08:22:25;2.7;68.1
79301;SHT31;68755;51.984;5.646;2024-01-07T08:24:55;2.7;68.0
79301;SHT31;68755;51.984;5.646;2024-01-07T08:27:25;2.7;68.2
79301;SHT31;68755;51.984;5.646;2024-01-07T08:29:55;2.7;68.3
79301;SHT31;68755;51.984;5.646;2024-01-07T08:32:24;2.7;68.3
79301;SHT31;68755;51.984;5.646;2024-01-07T08:34:54;2.6;68.5
79301;SHT31;68755;51.984;5.646;2024-01-07T08:37:23;2.6;68.8
79301;SHT31;68755;51.984;5.646;2024-01-07T08:39:53;2.6;68.6
79301;SHT31;68755;51.984;5.646;2024-01-07T08:42:22;2.6;68.8
79301;SHT31;68755;51.984;5.646;2024-01-07T08:44:52;2.6;68.6
79301;SHT31;68755;51.984;5.646;2024-01-07T08:47:22;2.6;69.0
79301;SHT31;68755;51.984;5.646;2024-01-07T08:49:52;2.6;69.1
79301;SHT31;68755;51.984;5.646;2024-01-07T08:52:23;2.6;68.8
79301;SHT31;68755;51.984;5.646;2024-01-07T08:54:54;2.6;68.7
79301;SHT31;68755;51.984;5.646;2024-01-07T08:57:24;2.6;69.2
79301;SHT31;68755;51.984;5.646;2024-01-07T08:59:54;2.6;69.3
79301;SHT31;68755;51.984;5.646;2024-01-07T09:02:24;2.6;69.4
79301;SHT31;68755;51.984;5.646;2024-01-07T09:04:54;2.6;68.8
79301;SHT31;68755;51.984;5.646;2024-01-07T09:07:25;2.6;68.7
79301;SHT31;68755;51.984;5.646;2024-01-07T09:09:54;2.6;69.1
79301;SHT31;68755;51.984;5.646;2024-01-07T09:12:27;2.6;68.4
79301;SHT31;68755;51.984;5.646;2024-01-07T09:14:58;2.5;68.6
79301;SHT31;68755;51.984;5.646;2024-01-07T09:17:28;2.5;68.7
79301;SHT31;68755;51.984;5.646;2024-01-07T09:19:58;2.5;68.7
79301;SHT31;68755;51.984;5.646;2024-01-07T09:22:28;2.5;68.1
79301;SHT31;68755;51.984;5.646;2024-01-07T09:24:58;2.5;68.0
79301;SHT31;68755;51.984;5.646;2024-01-07T09:27:27;2.5;68.1
79301;SHT31;68755;51.984;5.646;2024-01-07T09:29:59;2.5;68.2
79301;SHT31;68755;51.984;5.646;2024-01-07T09:32:29;2.5;67.7
79301;SHT31;68755;51.984;5.646;2024-01-07T09:34:59;2.5;67.9
79301;SHT31;68755;51.984;5.646;2024-01-07T09:37:29;2.5;67.7
79301;SHT31;68755;51.984;5.646;2024-01-07T09:39:59;2.5;67.9
79301;SHT31;68755;51.984;5.646;2024-01-07T09:42:28;2.5;67.8
79301;SHT31;68755;51.984;5.646;2024-01-07T09:45:02;2.5;67.6
79301;SHT31;68755;51.984;5.646;2024-01-07T09:47:34;2.5;68.6
79301;SHT31;68755;51.984;5.646;2024-01-07T09:50:04;2.5;67.7
79301;SHT31;68755;51.984;5.646;2024-01-07T09:52:38;2.5;67.7
79301;SHT31;68755;51.984;5.646;2024-01-07T09:55:18;2.5;67.1
79301;SHT31;68755;51.984;5.646;2024-01-07T09:57:50;2.5;67.2
79301;SHT31;68755;51.984;5.646;2024-01-07T10:00:20;2.5;67.4
79301;SHT31;68755;51.984;5.646;2024-01-07T10:02:50;2.5;67.5
79301;SHT31;68755;51.984;5.646;2024-01-07T10:05:19;2.5;67.0
79301;SHT31;68755;51.984;5.646;2024-01-07T10:07:49;2.5;67.3
79301;SHT31;68755;51.984;5.646;2024-01-07T10:10:22;2.5;67.3
79301;SHT31;68755;51.984;5.646;2024-01-07T10:12:51;2.5;66.6
79301;SHT31;68755;51.984;5.646;2024-01-07T10:15:26;2.5;66.9
79301;SHT31;68755;51.984;5.646;2024-01-07T10:18:06;2.5;67.1
79301;SHT31;68755;51.984;5.646;2024-01-07T10:20:36;2.5;66.5
79301;SHT31;68755;51.984;5.646;2024-01-07T10:23:06;2.5;67.2
79301;SHT31;68755;51.984;5.646;2024-01-07T10:25:36;2.6;66.3
79301;SHT31;68755;51.984;5.646;2024-01-07T10:28:06;2.6;66.0
79301;SHT31;68755;51.984;5.646;2024-01-07T10:30:40;2.6;66.2
79301;SHT31;68755;51.984;5.646;2024-01-07T10:33:10;2.6;65.5
79301;SHT31;68755;51.984;5.646;2024-01-07T10:35:51;2.6;65.5
79301;SHT31;68755;51.984;5.646;2024-01-07T10:38:21;2.6;65.6
79301;SHT31;68755;51.984;5.646;2024-01-07T10:40:52;2.6;65.1
79301;SHT31;68755;51.984;5.646;2024-01-07T10:43:24;2.6;63.9
79301;SHT31;68755;51.984;5.646;2024-01-07T10:45:55;2.5;64.0
79301;SHT31;68755;51.984;5.646;2024-01-07T10:48:31;2.5;65.2
79301;SHT31;68755;51.984;5.646;2024-01-07T10:51:02;2.5;63.9
79301;SHT31;68755;51.984;5.646;2024-01-07T10:53:33;2.5;63.7
79301;SHT31;68755;51.984;5.646;2024-01-07T10:56:05;2.4;63.6
79301;SHT31;68755;51.984;5.646;2024-01-07T10:58:37;2.4;63.6
79301;SHT31;68755;51.984;5.646;2024-01-07T11:01:09;2.4;63.9
79301;SHT31;68755;51.984;5.646;2024-01-07T11:03:45;2.3;63.1
79301;SHT31;68755;51.984;5.646;2024-01-07T11:06:25;2.3;63.7
79301;SHT31;68755;51.984;5.646;2024-01-07T11:09:02;2.3;64.2
79301;SHT31;68755;51.984;5.646;2024-01-07T11:11:37;2.3;64.2
79301;SHT31;68755;51.984;5.646;2024-01-07T11:14:37;2.3;64.2
79301;SHT31;68755;51.984;5.646;2024-01-07T11:17:07;2.3;63.8
79301;SHT31;68755;51.984;5.646;2024-01-07T11:19:38;2.3;64.0
79301;SHT31;68755;51.984;5.646;2024-01-07T11:22:23;2.3;64.2
79301;SHT31;68755;51.984;5.646;2024-01-07T11:24:56;2.3;64.2
79301;SHT31;68755;51.984;5.646;2024-01-07T11:27:28;2.3;63.9
79301;SHT31;68755;51.984;5.646;2024-01-07T11:30:02;2.3;63.9
79301;SHT31;68755;51.984;5.646;2024-01-07T11:32:35;2.3;64.1
79301;SHT31;68755;51.984;5.646;2024-01-07T11:35:05;2.3;64.1
79301;SHT31;68755;51.984;5.646;2024-01-07T11:37:36;2.3;63.5
79301;SHT31;68755;51.984;5.646;2024-01-07T11:40:07;2.3;63.4
79301;SHT31;68755;51.984;5.646;2024-01-07T11:42:38;2.3;63.3
79301;SHT31;68755;51.984;5.646;2024-01-07T11:45:09;2.3;63.7
79301;SHT31;68755;51.984;5.646;2024-01-07T11:47:41;2.3;63.4
79301;SHT31;68755;51.984;5.646;2024-01-07T11:50:13;2.3;63.0
79301;SHT31;68755;51.984;5.646;2024-01-07T11:52:43;2.3;62.8
79301;SHT31;68755;51.984;5.646;2024-01-07T11:55:13;2.3;62.4
79301;SHT31;68755;51.984;5.646;2024-01-07T11:57:44;2.3;62.0
79301;SHT31;68755;51.984;5.646;2024-01-07T12:00:14;2.3;62.5
79301;SHT31;68755;51.984;5.646;2024-01-07T12:02:45;2.3;61.7
79301;SHT31;68755;51.984;5.646;2024-01-07T12:05:15;2.3;61.9
79301;SHT31;68755;51.984;5.646;2024-01-07T12:07:45;2.3;60.8
79301;SHT31;68755;51.984;5.646;2024-01-07T12:10:15;2.3;61.4
79301;SHT31;68755;51.984;5.646;2024-01-07T12:12:47;2.3;61.3
79301;SHT31;68755;51.984;5.646;2024-01-07T12:15:19;2.3;59.9
79301;SHT31;68755;51.984;5.646;2024-01-07T12:17:59;2.3;59.7
79301;SHT31;68755;51.984;5.646;2024-01-07T12:20:31;2.3;59.6
79301;SHT31;68755;51.984;5.646;2024-01-07T12:23:07;2.3;60.1
79301;SHT31;68755;51.984;5.646;2024-01-07T12:25:37;2.3;59.6
79301;SHT31;68755;51.984;5.646;2024-01-07T12:28:08;2.4;59.8
79301;SHT31;68755;51.984;5.646;2024-01-07T12:30:37;2.4;59.7
79301;SHT31;68755;51.984;5.646;2024-01-07T12:33:07;2.4;57.9
79301;SHT31;68755;51.984;5.646;2024-01-07T12:35:37;2.4;58.1
79301;SHT31;68755;51.984;5.646;2024-01-07T12:38:07;2.4;57.6
79301;SHT31;68755;51.984;5.646;2024-01-07T12:40:37;2.4;58.2
79301;SHT31;68755;51.984;5.646;2024-01-07T12:43:06;2.4;58.2
79301;SHT31;68755;51.984;5.646;2024-01-07T12:45:36;2.3;59.2
79301;SHT31;68755;51.984;5.646;2024-01-07T12:48:06;2.4;59.9
79301;SHT31;68755;51.984;5.646;2024-01-07T12:50:36;2.4;59.7
79301;SHT31;68755;51.984;5.646;2024-01-07T12:53:06;2.4;60.3
79301;SHT31;68755;51.984;5.646;2024-01-07T12:55:36;2.4;60.5
79301;SHT31;68755;51.984;5.646;2024-01-07T12:58:07;2.4;60.1
79301;SHT31;68755;51.984;5.646;2024-01-07T13:00:36;2.5;59.3
79301;SHT31;68755;51.984;5.646;2024-01-07T13:03:09;2.5;59.6
79301;SHT31;68755;51.984;5.646;2024-01-07T13:05:45;2.5;59.1
79301;SHT31;68755;51.984;5.646;2024-01-07T13:08:16;2.5;58.8
79301;SHT31;68755;51.984;5.646;2024-01-07T13:10:46;2.5;58.5
79301;SHT31;68755;51.984;5.646;2024-01-07T13:13:16;2.5;58.4
79301;SHT31;68755;51.984;5.646;2024-01-07T13:15:45;2.5;58.5
79301;SHT31;68755;51.984;5.646;2024-01-07T13:18:16;2.5;58.0
79301;SHT31;68755;51.984;5.646;2024-01-07T13:20:48;2.5;58.4
79301;SHT31;68755;51.984;5.646;2024-01-07T13:23:19;2.5;57.6
79301;SHT31;68755;51.984;5.646;2024-01-07T13:25:48;2.4;57.9
79301;SHT31;68755;51.984;5.646;2024-01-07T13:28:18;2.4;58.0
79301;SHT31;68755;51.984;5.646;2024-01-07T13:30:48;2.4;57.4
79301;SHT31;68755;51.984;5.646;2024-01-07T13:33:18;2.4;58.0
79301;SHT31;68755;51.984;5.646;2024-01-07T13:35:47;2.4;57.7
79301;SHT31;68755;51.984;5.646;2024-01-07T13:38:17;2.4;57.7
79301;SHT31;68755;51.984;5.646;2024-01-07T13:40:47;2.4;57.4
79301;SHT31;68755;51.984;5.646;2024-01-07T13:43:17;2.3;56.7
79301;SHT31;68755;51.984;5.646;2024-01-07T13:45:47;2.3;56.9
79301;SHT31;68755;51.984;5.646;2024-01-07T13:48:17;2.3;57.1
79301;SHT31;68755;51.984;5.646;2024-01-07T13:50:47;2.3;57.3
79301;SHT31;68755;51.984;5.646;2024-01-07T13:53:17;2.3;57.2
79301;SHT31;68755;51.984;5.646;2024-01-07T13:55:47;2.3;57.8
79301;SHT31;68755;51.984;5.646;2024-01-07T13:58:18;2.3;57.5
79301;SHT31;68755;51.984;5.646;2024-01-07T14:00:50;2.3;57.2
79301;SHT31;68755;51.984;5.646;2024-01-07T14:03:20;2.2;57.5
79301;SHT31;68755;51.984;5.646;2024-01-07T14:05:50;2.2;58.0
79301;SHT31;68755;51.984;5.646;2024-01-07T14:08:20;2.3;57.7
79301;SHT31;68755;51.984;5.646;2024-01-07T14:10:50;2.3;57.4
79301;SHT31;68755;51.984;5.646;2024-01-07T14:13:20;2.3;57.1
79301;SHT31;68755;51.984;5.646;2024-01-07T14:15:50;2.3;57.0
79301;SHT31;68755;51.984;5.646;2024-01-07T14:18:19;2.3;57.5
79301;SHT31;68755;51.984;5.646;2024-01-07T14:20:49;2.3;57.6
79301;SHT31;68755;51.984;5.646;2024-01-07T14:23:19;2.3;57.5
79301;SHT31;68755;51.984;5.646;2024-01-07T14:25:49;2.3;57.1
79301;SHT31;68755;51.984;5.646;2024-01-07T14:28:19;2.3;57.2
79301;SHT31;68755;51.984;5.646;2024-01-07T14:30:49;2.3;57.3
79301;SHT31;68755;51.984;5.646;2024-01-07T14:33:20;2.3;57.0
79301;SHT31;68755;51.984;5.646;2024-01-07T14:35:51;2.3;57.3
79301;SHT31;68755;51.984;5.646;2024-01-07T14:38:21;2.3;57.7
79301;SHT31;68755;51.984;5.646;2024-01-07T14:40:52;2.3;58.1
79301;SHT31;68755;51.984;5.646;2024-01-07T14:43:23;2.3;58.7
79301;SHT31;68755;51.984;5.646;2024-01-07T14:45:53;2.3;58.2
79301;SHT31;68755;51.984;5.646;2024-01-07T14:48:23;2.3;57.4
79301;SHT31;68755;51.984;5.646;2024-01-07T14:50:52;2.3;57.9
79301;SHT31;68755;51.984;5.646;2024-01-07T14:53:22;2.3;58.2
79301;SHT31;68755;51.984;5.646;2024-01-07T14:55:52;2.3;57.5
79301;SHT31;68755;51.984;5.646;2024-01-07T14:58:21;2.3;58.0
79301;SHT31;68755;51.984;5.646;2024-01-07T15:00:52;2.3;58.3
79301;SHT31;68755;51.984;5.646;2024-01-07T15:03:22;2.3;58.4
79301;SHT31;68755;51.984;5.646;2024-01-07T15:05:51;2.3;58.7
79301;SHT31;68755;51.984;5.646;2024-01-07T15:08:21;2.3;57.9
79301;SHT31;68755;51.984;5.646;2024-01-07T15:10:51;2.3;57.8
79301;SHT31;68755;51.984;5.646;2024-01-07T15:13:20;2.3;58.2
79301;SHT31;68755;51.984;5.646;2024-01-07T15:15:50;2.3;57.7
79301;SHT31;68755;51.984;5.646;2024-01-07T15:18:20;2.3;58.3
79301;SHT31;68755;51.984;5.646;2024-01-07T15:20:49;2.3;58.3
79301;SHT31;68755;51.984;5.646;2024-01-07T15:23:20;2.3;58.5
79301;SHT31;68755;51.984;5.646;2024-01-07T15:25:49;2.3;58.5
79301;SHT31;68755;51.984;5.646;2024-01-07T15:28:20;2.2;58.3
79301;SHT31;68755;51.984;5.646;2024-01-07T15:30:49;2.2;57.9
79301;SHT31;68755;51.984;5.646;2024-01-07T15:33:19;2.2;58.3
79301;SHT31;68755;51.984;5.646;2024-01-07T15:35:49;2.2;59.1
79301;SHT31;68755;51.984;5.646;2024-01-07T15:38:18;2.1;58.7
79301;SHT31;68755;51.984;5.646;2024-01-07T15:40:48;2.1;59.2
79301;SHT31;68755;51.984;5.646;2024-01-07T15:43:17;2.1;59.7
79301;SHT31;68755;51.984;5.646;2024-01-07T15:45:47;2.1;60.0
79301;SHT31;68755;51.984;5.646;2024-01-07T15:48:17;2.1;59.9
79301;SHT31;68755;51.984;5.646;2024-01-07T15:50:47;2.1;59.6
79301;SHT31;68755;51.984;5.646;2024-01-07T15:53:16;2.1;59.8
79301;SHT31;68755;51.984;5.646;2024-01-07T15:55:46;2.1;59.5
79301;SHT31;68755;51.984;5.646;2024-01-07T15:58:16;2.1;59.9
79301;SHT31;68755;51.984;5.646;2024-01-07T16:00:46;2.1;60.0
79301;SHT31;68755;51.984;5.646;2024-01-07T16:03:15;2.0;60.2
79301;SHT31;68755;51.984;5.646;2024-01-07T16:05:45;2.0;60.1
79301;SHT31;68755;51.984;5.646;2024-01-07T16:08:15;2.0;60.1
79301;SHT31;68755;51.984;5.646;2024-01-07T16:10:44;2.0;60.5
79301;SHT31;68755;51.984;5.646;2024-01-07T16:13:14;2.0;60.2
79301;SHT31;68755;51.984;5.646;2024-01-07T16:15:45;2.0;60.3
79301;SHT31;68755;51.984;5.646;2024-01-07T16:18:17;1.9;60.6
79301;SHT31;68755;51.984;5.646;2024-01-07T16:20:48;1.9;60.7
79301;SHT31;68755;51.984;5.646;2024-01-07T16:23:20;1.9;61.1
79301;SHT31;68755;51.984;5.646;2024-01-07T16:25:52;1.9;61.1
79301;SHT31;68755;51.984;5.646;2024-01-07T16:28:21;1.8;61.2
79301;SHT31;68755;51.984;5.646;2024-01-07T16:30:51;1.8;61.5
79301;SHT31;68755;51.984;5.646;2024-01-07T16:33:22;1.8;61.4
79301;SHT31;68755;51.984;5.646;2024-01-07T16:35:52;1.8;61.4
79301;SHT31;68755;51.984;5.646;2024-01-07T16:38:21;1.8;61.4